Time;durP1;ratioP1;P1;durP2;ratioP2;P2;SDS_P1;SDS_P2;PMS_P1;PMS_P2;Temp;Humidity;BMP_temperature;BMP_pressure;BME280_temperature;BME280_humidity;BME280_pressure;Samples;Min_cycle;Max_cycle;Signal;HPM_P1;HPM_P2
2023/07/15 00:00:26;;;;;;;8.23;7.43;;;;;;;22.68;100.00;64356.00;5056932;28;20197;-83
2023/07/15 00:02:54;;;;;;;8.45;5.90;;;;;;;22.66;100.00;64348.19;5064489;28;20355;-81
2023/07/15 00:05:28;;;;;;;7.40;6.78;;;;;;;22.48;100.00;64331.94;5065828;28;20219;-83
2023/07/15 00:07:56;;;;;;;7.38;6.55;;;;;;;22.66;100.00;64350.78;5065872;27;20203;-83
2023/07/15 00:10:23;;;;;;;7.13;6.30;;;;;;;22.60;100.00;64344.50;5063490;28;20207;-81
2023/07/15 00:12:50;;;;;;;9.05;6.80;;;;;;;22.61;100.00;64340.34;5065783;28;20211;-82
2023/07/15 00:15:18;;;;;;;8.40;7.00;;;;;;;22.61;100.00;64343.47;5064690;28;20192;-83
2023/07/15 00:17:45;;;;;;;7.45;6.78;;;;;;;22.62;100.00;64344.50;5064999;27;20207;-83
2023/07/15 00:20:15;;;;;;;8.98;6.90;;;;;;;22.62;100.00;64344.50;5064635;27;20306;-80
2023/07/15 00:22:44;;;;;;;6.88;6.28;;;;;;;22.58;100.00;64339.81;5067617;28;20238;-83
2023/07/15 00:25:15;;;;;;;9.23;6.57;;;;;;;22.59;100.00;64340.88;5064185;27;20224;-81
2023/07/15 00:27:42;;;;;;;11.35;7.80;;;;;;;22.35;100.00;64318.88;5053049;27;20218;-83
2023/07/15 00:30:10;;;;;;;11.23;6.78;;;;;;;22.36;100.00;64314.75;5051975;27;20199;-82
2023/07/15 00:32:38;;;;;;;12.45;7.40;;;;;;;22.47;100.00;64330.88;5059754;28;20228;-82
2023/07/15 00:35:19;;;;;;;9.85;7.30;;;;;;;22.49;100.00;64333.50;5106560;27;20501;-82
2023/07/15 00:37:47;;;;;;;7.88;7.18;;;;;;;22.44;100.00;64325.69;5061594;28;20200;-83
2023/07/15 00:40:14;;;;;;;10.82;7.40;;;;;;;22.42;100.00;64326.19;5066071;28;20201;-84
2023/07/15 00:43:02;;;;;;;12.23;7.80;;;;;;;22.39;100.00;64319.94;5067731;28;20236;-83
2023/07/15 00:45:28;;;;;;;8.77;7.82;;;;;;;22.27;100.00;64310.00;5066268;28;20203;-83
2023/07/15 00:48:07;;;;;;;13.27;8.02;;;;;;;22.28;100.00;64311.03;5062877;28;20211;-82
2023/07/15 00:50:38;;;;;;;9.10;7.05;;;;;;;22.24;100.00;64307.38;5067192;28;20192;-84
2023/07/15 00:53:06;;;;;;;9.57;7.20;;;;;;;22.26;100.00;64306.34;5068397;28;20222;-81
2023/07/15 00:55:34;;;;;;;10.35;7.97;;;;;;;22.28;100.00;64314.16;5051588;27;20261;-82
2023/07/15 00:58:03;;;;;;;8.10;7.30;;;;;;;22.22;100.00;64297.50;5062096;27;20208;-80
2023/07/15 01:00:30;;;;;;;8.07;7.22;;;;;;;22.28;100.00;64308.97;5067391;28;20218;-83
2023/07/15 01:02:59;;;;;;;8.05;7.25;;;;;;;22.24;100.00;64306.84;5066845;28;20251;-81
2023/07/15 01:05:27;;;;;;;12.82;8.55;;;;;;;22.27;100.00;64310.50;5051773;28;20212;-82
2023/07/15 01:07:54;;;;;;;12.70;7.75;;;;;;;22.27;100.00;64307.38;5068968;27;20238;-81
2023/07/15 01:10:21;;;;;;;8.70;7.90;;;;;;;22.25;100.00;64305.28;5068505;27;20209;-81
2023/07/15 01:12:49;;;;;;;8.30;6.97;;;;;;;22.24;100.00;64304.25;5060048;28;20205;-81
2023/07/15 01:15:16;;;;;;;8.13;7.20;;;;;;;22.22;100.00;64299.56;5047349;28;20198;-84
2023/07/15 01:17:43;;;;;;;8.32;7.53;;;;;;;22.14;100.00;64293.81;5064432;28;20220;-84
2023/07/15 01:20:12;;;;;;;10.07;7.75;;;;;;;22.09;100.00;64289.09;5069790;28;20409;-84
2023/07/15 01:22:40;;;;;;;7.75;7.05;;;;;;;22.17;100.00;64292.28;5068944;27;20224;-83
2023/07/15 01:25:08;;;;;;;9.00;8.07;;;;;;;22.23;100.00;64298.53;5068463;28;20212;-85
2023/07/15 01:27:35;;;;;;;8.18;7.40;;;;;;;22.12;100.00;64292.25;5067021;28;20221;-80
2023/07/15 01:30:03;;;;;;;10.02;7.80;;;;;;;22.15;100.00;64297.97;5066333;27;20227;-82
2023/07/15 01:32:30;;;;;;;13.13;8.55;;;;;;;22.11;100.00;64290.66;5059687;28;20372;-83
2023/07/15 01:34:57;;;;;;;9.45;7.55;;;;;;;22.07;100.00;64287.00;5122392;27;20189;-81
2023/07/15 01:37:24;;;;;;;8.93;7.85;;;;;;;22.10;100.00;64289.63;5065718;28;20216;-81
2023/07/15 01:39:53;;;;;;;9.07;8.18;;;;;;;21.98;100.00;64279.69;5058623;27;20197;-84
2023/07/15 01:42:20;;;;;;;9.82;8.82;;;;;;;22.05;100.00;64284.41;5048419;27;20213;-83
2023/07/15 01:44:47;;;;;;;11.10;8.35;;;;;;;22.01;100.00;64278.16;5047790;28;20240;-84
2023/07/15 01:47:14;;;;;;;10.85;7.45;;;;;;;22.05;100.00;64287.00;5064888;27;20221;-83
2023/07/15 01:49:42;;;;;;;8.43;7.20;;;;;;;21.97;100.00;64279.16;5053249;27;20235;-82
2023/07/15 01:52:10;;;;;;;9.70;8.65;;;;;;;21.95;100.00;64277.06;5049133;28;20227;-84
2023/07/15 01:54:40;;;;;;;12.15;8.05;;;;;;;21.94;100.00;64276.03;5061849;28;20235;-82
2023/07/15 01:57:08;;;;;;;9.15;8.27;;;;;;;21.88;100.00;64272.34;5063852;28;20252;-83
2023/07/15 01:59:36;;;;;;;12.73;8.45;;;;;;;21.89;100.00;64267.69;5052825;28;20208;-83
2023/07/15 02:02:03;;;;;;;8.05;7.25;;;;;;;21.89;100.00;64270.28;5068118;28;20393;-82
2023/07/15 02:04:30;;;;;;;8.88;7.95;;;;;;;21.92;100.00;64273.41;5068047;28;20231;-82
2023/07/15 02:06:57;;;;;;;9.25;8.35;;;;;;;21.92;100.00;64270.81;5058321;27;20251;-81
2023/07/15 02:09:25;;;;;;;12.75;8.43;;;;;;;21.87;100.00;64270.78;5052783;28;20227;-80
2023/07/15 02:11:52;;;;;;;12.50;8.85;;;;;;;21.89;100.00;64270.28;5064815;28;20252;-83
2023/07/15 02:14:21;;;;;;;8.88;8.02;;;;;;;21.77;100.00;64256.19;5066377;27;20193;-83
2023/07/15 02:16:48;;;;;;;9.20;8.07;;;;;;;21.83;100.00;64261.41;5049742;28;20225;-81
2023/07/15 02:19:15;;;;;;;9.55;7.95;;;;;;;21.77;100.00;64256.19;5048960;27;20545;-82
2023/07/15 02:21:42;;;;;;;9.73;8.82;;;;;;;21.72;100.00;64250.41;5059808;28;20217;-82
2023/07/15 02:24:09;;;;;;;11.57;7.88;;;;;;;21.72;100.00;64250.41;5067206;27;20232;-83
2023/07/15 02:26:37;;;;;;;10.45;8.18;;;;;;;21.72;100.00;64253.53;5063465;28;20240;-81
2023/07/15 02:29:04;;;;;;;11.38;8.50;;;;;;;21.69;100.00;64242.63;5063750;28;20428;-83
2023/07/15 02:31:32;;;;;;;9.57;8.02;;;;;;;21.59;100.00;64239.41;5068651;28;20221;-81
2023/07/15 02:33:59;;;;;;;12.90;8.60;;;;;;;21.41;100.00;64218.03;5087220;27;20201;-83
2023/07/15 02:36:26;;;;;;;9.95;9.02;;;;;;;21.21;100.00;64197.66;5094791;27;20229;-82
2023/07/15 02:38:53;;;;;;;14.38;8.95;;;;;;;20.94;100.00;64169.44;5067454;28;20268;-81
2023/07/15 02:41:20;;;;;;;10.95;8.95;;;;;;;20.84;100.00;64161.06;5065027;28;20213;-83
2023/07/15 02:43:49;;;;;;;11.30;9.40;;;;;;;20.69;100.00;64143.34;5065309;28;20228;-82
2023/07/15 02:46:16;;;;;;;11.30;8.68;;;;;;;20.68;100.00;64145.41;5054510;28;20538;-84
2023/07/15 02:48:45;;;;;;;9.63;8.70;;;;;;;20.65;100.00;64147.47;5049327;28;20212;-83
2023/07/15 02:51:12;;;;;;;10.80;9.75;;;;;;;20.72;100.00;64141.31;5047745;27;20228;-81
2023/07/15 02:53:39;;;;;;;12.30;9.38;;;;;;;20.83;100.00;64160.03;5047126;28;20198;-83
2023/07/15 02:56:06;;;;;;;13.27;10.02;;;;;;;20.90;100.00;64162.69;5047006;28;20232;-80
2023/07/15 02:58:34;;;;;;;12.40;9.55;;;;;;;20.99;100.00;64174.16;5056342;28;20204;-82
2023/07/15 03:01:00;;;;;;;12.32;9.70;;;;;;;20.96;100.00;64171.00;5046175;27;20221;-82
2023/07/15 03:03:27;;;;;;;12.07;9.57;;;;;;;21.04;100.00;64182.50;5066924;28;20285;-83
2023/07/15 03:05:56;;;;;;;13.93;9.23;;;;;;;21.05;100.00;64183.56;5067771;28;20217;-82
2023/07/15 03:08:23;;;;;;;12.68;9.13;;;;;;;21.12;100.00;64187.75;5048505;28;20209;-83
2023/07/15 03:10:51;;;;;;;13.52;9.43;;;;;;;21.06;100.00;64182.00;5064902;27;20225;-83
2023/07/15 03:13:18;;;;;;;14.85;9.45;;;;;;;21.14;100.00;64190.34;5065480;28;20213;-82
2023/07/15 03:15:46;;;;;;;12.85;8.65;;;;;;;21.35;100.00;64206.56;5060938;28;20213;-82
2023/07/15 03:18:13;;;;;;;9.88;8.88;;;;;;;21.38;100.00;64215.41;5066814;28;20197;-83
2023/07/15 03:20:41;;;;;;;10.48;9.02;;;;;;;21.46;100.00;64221.19;5065754;28;20231;-80
2023/07/15 03:23:10;;;;;;;10.52;8.85;;;;;;;21.47;100.00;64221.69;5064404;28;20204;-84
2023/07/15 03:25:37;;;;;;;12.68;9.27;;;;;;;21.51;100.00;64226.41;5063766;27;20224;-82
2023/07/15 03:28:04;;;;;;;10.90;9.70;;;;;;;21.56;100.00;64239.41;5065191;28;20197;-84
2023/07/15 03:30:31;;;;;;;13.35;9.07;;;;;;;21.59;100.00;64237.34;5068997;28;20192;-83
2023/07/15 03:32:58;;;;;;;10.60;9.38;;;;;;;21.62;100.00;64239.97;5064863;27;20363;-82
2023/07/15 03:35:25;;;;;;;14.57;9.18;;;;;;;21.71;100.00;64246.78;5052288;27;20198;-83
2023/07/15 03:37:53;;;;;;;10.40;9.40;;;;;;;21.76;100.00;64255.13;5053531;27;20204;-83
2023/07/15 03:40:21;;;;;;;11.15;9.68;;;;;;;21.85;100.00;64266.59;5063998;27;20208;-84
2023/07/15 03:42:48;;;;;;;11.88;9.02;;;;;;;21.89;100.00;64270.28;5064462;28;20201;-85
2023/07/15 03:45:15;;;;;;;9.90;8.32;;;;;;;21.96;100.00;64275.53;5055940;28;20228;-84
2023/07/15 03:47:42;;;;;;;11.48;9.40;;;;;;;21.96;100.00;64272.41;5065087;28;20284;-82
2023/07/15 03:50:10;;;;;;;10.10;8.57;;;;;;;22.13;100.00;64285.50;5065525;27;20196;-82
2023/07/15 03:52:37;;;;;;;13.00;8.90;;;;;;;22.15;100.00;64297.97;5064169;28;20510;-82
2023/07/15 03:55:05;;;;;;;15.63;8.90;;;;;;;22.10;100.00;64290.16;5059640;27;20447;-81
2023/07/15 03:57:34;;;;;;;13.05;9.13;;;;;;;22.20;100.00;64298.00;5065117;28;20224;-84
2023/07/15 04:00:03;;;;;;;12.07;8.82;;;;;;;22.26;100.00;64308.94;5065940;28;20260;-81
2023/07/15 04:02:30;;;;;;;10.25;8.98;;;;;;;22.34;100.00;64315.25;5051309;28;20221;-82
2023/07/15 04:04:57;;;;;;;10.00;9.05;;;;;;;22.45;100.00;64318.44;5061849;28;20228;-81
2023/07/15 04:07:25;;;;;;;11.93;9.40;;;;;;;22.51;100.00;64333.00;5065474;27;20257;-83
2023/07/15 04:09:52;;;;;;;10.82;8.40;;;;;;;22.55;100.00;64336.69;5063525;27;20395;-80
2023/07/15 04:12:19;;;;;;;13.32;9.63;;;;;;;22.39;100.00;64317.34;5066476;28;20223;-84
2023/07/15 04:14:48;;;;;;;11.50;9.40;;;;;;;22.18;100.00;64297.97;5064308;27;20466;-83
2023/07/15 04:17:16;;;;;;;12.25;9.02;;;;;;;22.12;100.00;64291.72;5064570;27;20221;-82
2023/07/15 04:19:44;;;;;;;13.70;8.88;;;;;;;22.21;100.00;64303.72;5065194;27;20230;-81
2023/07/15 04:22:12;;;;;;;12.75;9.15;;;;;;;22.34;100.00;64312.13;5065674;28;20501;-81
2023/07/15 04:24:40;;;;;;;14.30;10.65;;;;;;;22.43;100.00;64326.72;5055703;28;20530;-84
2023/07/15 04:27:07;;;;;;;12.75;11.10;;;;;;;22.43;100.00;64321.53;5047023;27;20217;-84
2023/07/15 04:29:34;;;;;;;16.20;10.77;;;;;;;22.08;100.00;64288.06;5056516;27;20204;-83
2023/07/15 04:32:03;;;;;;;12.40;10.55;;;;;;;21.91;100.00;64269.78;5066405;28;20232;-84
2023/07/15 04:34:30;;;;;;;16.30;11.57;;;;;;;21.84;100.00;64260.38;5083698;27;20223;-84
2023/07/15 04:36:57;;;;;;;11.23;9.88;;;;;;;22.11;100.00;64288.06;5063559;27;20220;-82
2023/07/15 04:39:27;;;;;;;18.00;10.43;;;;;;;22.13;100.00;64292.75;5065452;27;20207;-83
2023/07/15 04:41:54;;;;;;;15.75;12.48;;;;;;;21.71;100.00;64244.72;5060735;27;20248;-84
2023/07/15 04:44:22;;;;;;;13.23;11.77;;;;;;;21.87;100.00;64270.78;5066936;27;20232;-83
2023/07/15 04:46:49;;;;;;;15.57;11.63;;;;;;;21.98;100.00;64279.69;5059230;27;20250;-84
2023/07/15 04:49:18;;;;;;;12.15;10.75;;;;;;;22.07;100.00;64287.00;5051375;27;20205;-82
2023/07/15 04:51:45;;;;;;;13.02;11.40;;;;;;;22.56;100.00;64335.13;5046481;28;20278;-84
2023/07/15 04:54:12;;;;;;;14.93;11.48;;;;;;;22.68;100.00;64347.69;5061206;28;20201;-82
2023/07/15 04:56:40;;;;;;;13.95;10.88;;;;;;;22.80;100.00;64363.34;5063855;27;20220;-84
2023/07/15 04:59:10;;;;;;;13.45;10.60;;;;;;;22.90;100.00;64378.47;5046350;28;20239;-81
2023/07/15 05:01:37;;;;;;;10.63;9.52;;;;;;;22.94;100.00;64374.88;5054144;27;20522;-84
2023/07/15 05:04:06;;;;;;;12.95;10.15;;;;;;;23.23;100.00;64407.78;5054990;28;20321;-82
2023/07/15 05:06:36;;;;;;;15.13;11.45;;;;;;;23.31;100.00;64416.19;5062383;27;20226;-84
2023/07/15 05:09:05;;;;;;;15.98;10.90;;;;;;;23.27;100.00;64406.25;5043619;28;20286;-81
2023/07/15 05:11:32;;;;;;;12.63;10.95;;;;;;;23.10;100.00;64396.28;5063015;27;20251;-83
2023/07/15 05:14:00;;;;;;;12.45;10.60;;;;;;;23.04;100.00;64387.91;5064309;28;20245;-85
2023/07/15 05:16:27;;;;;;;12.68;10.88;;;;;;;23.30;100.00;64415.13;5066512;27;20319;-84
2023/07/15 05:18:54;;;;;;;18.48;12.10;;;;;;;23.38;100.00;64420.91;5062520;28;20199;-83
2023/07/15 05:21:21;;;;;;;14.02;11.30;;;;;;;23.41;100.00;64426.66;5061946;27;20225;-82
2023/07/15 05:23:49;;;;;;;15.25;11.50;;;;;;;23.61;100.00;64452.25;5058696;28;20197;-81
2023/07/15 05:26:16;;;;;;;12.32;10.35;;;;;;;23.79;100.00;64463.81;5069023;27;20208;-82
2023/07/15 05:28:43;;;;;;;17.98;10.00;;;;;;;23.99;100.00;64486.84;5066094;27;20202;-83
2023/07/15 05:31:10;;;;;;;13.05;10.68;;;;;;;24.06;100.00;64496.25;5067636;28;20334;-83
2023/07/15 05:33:38;;;;;;;15.02;9.95;;;;;;;24.18;100.00;64506.22;5071487;27;20192;-84
2023/07/15 05:36:07;;;;;;;13.82;10.55;;;;;;;24.04;100.00;64497.28;5070332;27;20286;-83
2023/07/15 05:38:42;;;;;;;18.55;11.32;;;;;;;24.00;100.00;64487.88;5066941;28;20260;-83
2023/07/15 05:41:11;;;;;;;12.20;10.90;;;;;;;24.24;100.00;64509.88;5058032;28;20227;-84
2023/07/15 05:43:38;;;;;;;12.02;10.82;;;;;;;24.46;100.00;64536.03;5068646;28;20193;-84
2023/07/15 05:46:05;;;;;;;16.90;10.93;;;;;;;24.46;100.00;64535.50;5063989;27;20208;-81
2023/07/15 05:48:32;;;;;;;23.83;10.68;;;;;;;24.69;100.00;64562.22;5064279;28;20236;-83
2023/07/15 05:51:00;;;;;;;13.05;10.63;;;;;;;24.69;100.00;64562.75;5067250;27;20225;-84
2023/07/15 05:53:27;;;;;;;15.75;10.73;;;;;;;24.69;100.00;64559.63;5066102;27;20200;-84
2023/07/15 05:55:54;;;;;;;18.92;11.07;;;;;;;24.80;100.00;64569.06;5065434;27;20225;-85
2023/07/15 05:58:26;;;;;;;17.77;11.18;;;;;;;24.83;100.00;64571.69;5072180;27;20231;-85
2023/07/15 06:00:53;;;;;;;13.25;11.68;;;;;;;24.87;100.00;64575.84;5068762;27;20219;-84
2023/07/15 06:03:21;;;;;;;13.57;11.18;;;;;;;24.91;100.00;64583.19;5065117;27;20520;-83
2023/07/15 06:05:48;;;;;;;17.33;12.02;;;;;;;24.88;100.00;64582.66;5063290;27;20250;-86
2023/07/15 06:08:17;;;;;;;12.90;10.57;;;;;;;24.98;100.00;64590.00;5060078;27;20286;-82
2023/07/15 06:10:44;;;;;;;15.73;11.00;;;;;;;24.73;100.00;64564.31;5063131;27;20241;-82
2023/07/15 06:13:12;;;;;;;12.23;10.73;;;;;;;24.60;100.00;64550.16;5065983;28;20282;-83
2023/07/15 06:15:42;;;;;;;18.92;11.25;;;;;;;24.69;100.00;64559.63;5060842;28;20547;-83
2023/07/15 06:18:09;;;;;;;11.68;10.32;;;;;;;24.71;100.00;64559.13;5065715;27;20215;-82
2023/07/15 06:20:39;;;;;;;16.50;11.77;;;;;;;24.61;100.00;64546.03;5051339;28;20209;-83
2023/07/15 06:23:06;;;;;;;16.02;10.38;;;;;;;24.64;100.00;64552.28;5131297;27;20185;-83
2023/07/15 06:25:37;;;;;;;12.35;9.93;;;;;;;25.13;100.00;64606.22;5051597;28;20233;-84
2023/07/15 06:28:04;;;;;;;12.93;10.15;;;;;;;25.43;97.93;64636.63;5068736;28;20196;-83
2023/07/15 06:30:32;;;;;;;11.40;9.88;;;;;;;25.54;91.53;64648.16;5069298;28;20208;-84
2023/07/15 06:33:01;;;;;;;14.85;8.90;;;;;;;25.77;91.29;64674.88;5069911;28;20204;-82
2023/07/15 06:35:28;;;;;;;15.27;9.93;;;;;;;25.56;91.44;64656.00;5063244;27;20201;-82
2023/07/15 06:37:55;;;;;;;11.60;9.02;;;;;;;25.68;89.82;64665.44;5065512;28;20245;-83
2023/07/15 06:40:22;;;;;;;9.98;8.45;;;;;;;25.83;89.76;64679.09;5059841;27;20197;-82
2023/07/15 06:42:50;;;;;;;10.75;9.32;;;;;;;25.89;87.07;64680.13;5065037;27;20209;-83
2023/07/15 06:45:20;;;;;;;12.07;9.38;;;;;;;26.15;87.13;64712.63;5075648;27;20232;-83
2023/07/15 06:47:47;;;;;;;10.27;9.25;;;;;;;26.22;84.10;64716.84;5065741;28;20193;-83
2023/07/15 06:50:16;;;;;;;11.30;9.30;;;;;;;26.21;85.67;64718.41;5065202;27;20223;-81
2023/07/15 06:52:44;;;;;;;10.20;8.23;;;;;;;26.42;82.03;64739.91;5089762;27;20213;-82
2023/07/15 06:55:11;;;;;;;8.32;7.63;;;;;;;26.72;78.16;64774.50;5065812;28;20216;-81
2023/07/15 06:57:38;;;;;;;9.57;8.57;;;;;;;26.54;80.24;64753.00;5067408;28;20239;-83
2023/07/15 07:00:13;;;;;;;11.60;8.07;;;;;;;26.83;79.32;64785.53;5066326;28;20200;-82
2023/07/15 07:02:40;;;;;;;10.48;8.63;;;;;;;26.63;77.61;64762.44;5064760;27;20212;-82
2023/07/15 07:05:07;;;;;;;9.57;8.57;;;;;;;26.97;77.22;64792.38;5068271;27;20265;-83
2023/07/15 07:07:37;;;;;;;14.80;8.73;;;;;;;26.91;75.86;64796.53;5158665;27;20213;-82
2023/07/15 07:10:04;;;;;;;11.00;9.48;;;;;;;26.87;78.68;64787.13;5101785;27;20388;-84
2023/07/15 07:12:31;;;;;;;12.18;9.05;;;;;;;26.89;74.92;64789.19;5065922;27;20234;-83
2023/07/15 07:14:59;;;;;;;12.63;8.55;;;;;;;27.07;77.57;64806.00;5065294;27;20198;-86
2023/07/15 07:17:26;;;;;;;11.85;9.13;;;;;;;27.26;79.62;64828.03;5067327;28;20241;-81
2023/07/15 07:19:53;;;;;;;10.60;8.38;;;;;;;27.03;75.34;64804.41;5065059;28;20208;-82
2023/07/15 07:22:20;;;;;;;10.50;9.15;;;;;;;27.27;75.35;64832.22;5068567;28;20212;-81
2023/07/15 07:24:51;;;;;;;10.48;9.20;;;;;;;27.35;74.41;64834.88;5063185;27;20235;-82
2023/07/15 07:27:18;;;;;;;14.95;9.07;;;;;;;27.32;75.78;64831.19;5065169;27;20223;-82
2023/07/15 07:29:46;;;;;;;9.50;7.78;;;;;;;27.54;74.36;64862.66;5067968;28;20201;-82
2023/07/15 07:32:13;;;;;;;12.68;9.23;;;;;;;27.61;72.50;64862.13;5066544;27;20219;-82
2023/07/15 07:34:40;;;;;;;12.27;9.48;;;;;;;27.46;73.21;64845.91;5064136;27;20197;-84
2023/07/15 07:37:07;;;;;;;9.88;8.95;;;;;;;27.61;75.41;64864.25;5063853;27;20213;-82
2023/07/15 07:39:35;;;;;;;12.63;9.43;;;;;;;27.87;71.31;64888.91;5064625;28;20196;-82
2023/07/15 07:42:03;;;;;;;10.32;9.00;;;;;;;27.96;72.75;64901.00;5065958;27;20513;-84
2023/07/15 07:44:30;;;;;;;11.43;9.07;;;;;;;27.77;71.43;64884.19;5061269;28;20218;-82
2023/07/15 07:46:58;;;;;;;11.50;8.93;;;;;;;27.68;74.16;64874.72;5067275;27;20440;-82
2023/07/15 07:49:25;;;;;;;9.48;8.52;;;;;;;27.91;70.48;64896.28;5065584;28;20219;-82
2023/07/15 07:51:52;;;;;;;10.32;9.10;;;;;;;28.03;68.79;64905.72;5074327;27;20209;-79
2023/07/15 07:54:19;;;;;;;9.38;8.38;;;;;;;28.10;70.45;64915.69;5091769;27;20215;-80
2023/07/15 07:56:46;;;;;;;10.00;8.50;;;;;;;28.10;70.42;64915.69;5069299;27;20224;-80
2023/07/15 07:59:14;;;;;;;14.65;9.38;;;;;;;28.15;70.48;64920.94;5065228;28;20260;-79
2023/07/15 08:01:42;;;;;;;9.35;8.50;;;;;;;28.37;69.55;64946.66;5065560;28;20501;-80
2023/07/15 08:04:09;;;;;;;15.43;9.40;;;;;;;28.33;69.56;64939.84;5118910;27;20256;-80
2023/07/15 08:06:37;;;;;;;10.07;8.60;;;;;;;28.64;69.96;64971.88;5065508;28;20265;-80
2023/07/15 08:09:04;;;;;;;9.35;8.35;;;;;;;28.73;63.75;64979.25;5069607;27;20193;-80
2023/07/15 08:11:31;;;;;;;15.07;9.27;;;;;;;28.81;65.21;64989.75;5063928;28;20276;-80
2023/07/15 08:13:58;;;;;;;13.98;9.05;;;;;;;29.12;65.01;65025.47;5064776;28;20217;-81
2023/07/15 08:16:32;;;;;;;14.32;9.10;;;;;;;29.10;62.91;65017.59;5066192;27;20287;-79
2023/07/15 08:19:00;;;;;;;10.93;9.43;;;;;;;29.09;60.95;65019.16;5063981;28;20245;-81
2023/07/15 08:21:27;;;;;;;9.63;8.63;;;;;;;28.98;62.13;65008.13;5089935;27;20275;-80
2023/07/15 08:23:54;;;;;;;10.93;8.38;;;;;;;28.84;61.60;64992.88;5064514;28;20231;-81
2023/07/15 08:26:22;;;;;;;11.05;9.90;;;;;;;29.04;63.70;65013.91;5064692;28;20243;-80
2023/07/15 08:28:49;;;;;;;14.40;9.45;;;;;;;29.28;61.22;65034.44;5067415;27;20196;-80
2023/07/15 08:31:17;;;;;;;11.10;9.82;;;;;;;29.45;62.17;65057.00;5097096;27;20227;-81
2023/07/15 08:33:46;;;;;;;12.88;9.25;;;;;;;29.74;60.61;65090.13;5065179;27;20200;-80
2023/07/15 08:36:13;;;;;;;15.48;9.38;;;;;;;29.87;57.97;65098.56;5064522;28;20224;-80
2023/07/15 08:38:40;;;;;;;10.38;9.40;;;;;;;29.94;56.68;65108.50;5086511;27;20205;-80
2023/07/15 08:41:10;;;;;;;11.82;9.30;;;;;;;29.95;59.45;65111.66;5062117;27;20212;-79
2023/07/15 08:43:37;;;;;;;10.68;9.73;;;;;;;29.88;60.07;65102.22;5065897;28;20200;-81
2023/07/15 08:46:14;;;;;;;10.82;9.68;;;;;;;29.79;59.32;65092.75;5065651;28;20242;-81
2023/07/15 08:48:41;;;;;;;10.90;9.80;;;;;;;29.75;57.47;65088.03;5055186;28;20458;-80
2023/07/15 08:51:11;;;;;;;11.20;9.63;;;;;;;29.58;58.71;65068.03;5068106;28;20215;-81
2023/07/15 08:53:41;;;;;;;12.20;10.40;;;;;;;29.44;59.47;65055.97;5066294;27;20185;-82
2023/07/15 08:56:10;;;;;;;11.07;9.70;;;;;;;29.42;59.70;65054.38;5063209;28;20467;-80
2023/07/15 08:58:38;;;;;;;11.43;10.23;;;;;;;29.50;60.56;65062.25;5119946;27;20238;-82
2023/07/15 09:01:05;;;;;;;11.73;9.95;;;;;;;29.67;58.99;65079.59;5046871;28;20252;-81
2023/07/15 09:03:32;;;;;;;11.00;9.13;;;;;;;29.75;57.75;65090.66;5063430;27;20192;-80
2023/07/15 09:05:59;;;;;;;12.98;9.70;;;;;;;29.86;60.10;65105.38;5065767;28;20233;-81
2023/07/15 09:08:27;;;;;;;11.93;10.02;;;;;;;29.86;61.17;65096.94;5067824;28;20481;-80
2023/07/15 09:10:56;;;;;;;11.20;9.38;;;;;;;30.03;62.46;65117.97;5067199;28;20224;-80
2023/07/15 09:13:25;;;;;;;15.60;10.75;;;;;;;30.23;59.15;65139.03;5064442;28;20411;-81
2023/07/15 09:15:52;;;;;;;13.73;10.00;;;;;;;30.52;55.91;65169.53;5065048;28;20234;-81
2023/07/15 09:18:19;;;;;;;10.82;9.52;;;;;;;30.62;55.24;65179.50;5064844;28;20260;-81
2023/07/15 09:20:47;;;;;;;17.00;9.50;;;;;;;30.71;54.86;65193.72;5073607;27;20237;-81
2023/07/15 09:23:15;;;;;;;13.00;9.75;;;;;;;30.82;55.41;65203.22;5079190;27;20268;-79
2023/07/15 09:25:51;;;;;;;15.65;10.40;;;;;;;30.95;56.94;65216.88;5067005;28;20228;-79
2023/07/15 09:28:19;;;;;;;12.90;11.52;;;;;;;31.02;57.26;65218.97;5063926;28;20193;-78
2023/07/15 09:30:47;;;;;;;12.52;10.43;;;;;;;31.12;56.18;65231.59;5062578;28;20226;-81
2023/07/15 09:33:30;;;;;;;12.18;10.98;;;;;;;31.04;54.46;65226.34;5067249;28;20647;-79
2023/07/15 09:35:59;;;;;;;11.45;10.45;;;;;;;30.54;54.58;65168.47;5068493;28;20213;-79
2023/07/15 09:38:31;;;;;;;14.82;11.02;;;;;;;30.43;57.81;65164.78;5062974;27;20220;-77
2023/07/15 09:41:01;;;;;;;13.50;12.10;;;;;;;30.29;56.93;65142.19;5065762;28;20228;-80
2023/07/15 09:43:46;;;;;;;13.90;10.13;;;;;;;30.65;55.39;65182.66;5063151;28;20216;-77
2023/07/15 09:46:14;;;;;;;15.60;12.77;;;;;;;30.87;54.31;65205.84;5066189;27;20473;-79
2023/07/15 09:48:42;;;;;;;15.63;10.15;;;;;;;30.92;54.36;65210.56;5068543;27;20197;-78
2023/07/15 09:51:12;;;;;;;13.88;10.45;;;;;;;30.81;55.48;65198.97;5065211;28;20231;-79
2023/07/15 09:53:43;;;;;;;12.50;9.55;;;;;;;30.81;57.87;65198.97;5064695;28;20207;-81
2023/07/15 09:56:13;;;;;;;13.70;10.60;;;;;;;30.96;58.86;65214.78;5066618;28;20458;-79
2023/07/15 09:58:46;;;;;;;12.00;10.25;;;;;;;31.31;59.06;65252.13;5067262;28;20205;-80
2023/07/15 10:01:18;;;;;;;11.15;9.75;;;;;;;31.41;56.40;65262.13;5058899;28;20220;-81
2023/07/15 10:03:54;;;;;;;11.98;9.98;;;;;;;31.73;56.38;65293.19;5051216;27;20197;-78
2023/07/15 10:06:22;;;;;;;11.90;10.68;;;;;;;31.73;54.63;65297.91;5065714;28;20232;-79
2023/07/15 10:08:50;;;;;;;16.13;10.63;;;;;;;31.96;56.08;65319.53;5046859;28;20205;-78
2023/07/15 10:11:19;;;;;;;10.77;9.77;;;;;;;31.96;52.87;65317.41;5049562;28;20213;-79
2023/07/15 10:13:47;;;;;;;11.15;10.10;;;;;;;31.86;53.28;65303.72;5053668;27;20197;-79
2023/07/15 10:16:14;;;;;;;13.05;11.18;;;;;;;32.00;54.07;65323.72;5054740;28;20221;-79
2023/07/15 10:18:41;;;;;;;12.88;10.40;;;;;;;32.17;53.82;65344.78;5062806;28;20193;-78
2023/07/15 10:21:11;;;;;;;14.93;10.90;;;;;;;31.96;55.32;65316.88;5057016;28;20212;-77
2023/07/15 10:23:38;;;;;;;13.70;11.48;;;;;;;32.04;52.40;65327.94;5048081;28;20262;-79
2023/07/15 10:26:06;;;;;;;14.90;10.32;;;;;;;32.38;52.48;65366.38;5069227;27;20239;-79
2023/07/15 10:28:39;;;;;;;12.52;9.95;;;;;;;32.34;50.85;65360.03;5065732;28;20546;-78
2023/07/15 10:31:08;;;;;;;13.50;10.48;;;;;;;32.36;52.06;65364.25;5066780;28;20459;-78
2023/07/15 10:33:36;;;;;;;17.23;10.90;;;;;;;32.45;52.42;65371.13;5074524;27;20204;-79
2023/07/15 10:36:06;;;;;;;11.20;10.00;;;;;;;32.72;51.36;65399.56;5132617;27;20224;-77
2023/07/15 10:38:33;;;;;;;11.63;10.50;;;;;;;32.95;50.95;65420.63;5086983;27;20196;-79
2023/07/15 10:41:02;;;;;;;15.02;10.80;;;;;;;33.08;48.03;65434.34;5057630;28;20236;-79
2023/07/15 10:43:41;;;;;;;12.15;10.95;;;;;;;32.81;47.54;65411.16;5064173;28;20197;-77
2023/07/15 10:46:09;;;;;;;14.18;11.40;;;;;;;32.70;48.41;65397.97;5050916;28;20236;-77
2023/07/15 10:48:37;;;;;;;14.27;11.73;;;;;;;33.00;48.02;65428.56;5045000;28;20205;-78
2023/07/15 10:51:06;;;;;;;13.90;11.15;;;;;;;32.85;46.73;65418.00;5050981;28;20260;-77
2023/07/15 10:53:34;;;;;;;13.50;10.82;;;;;;;32.93;46.89;65426.47;5064164;28;20201;-78
2023/07/15 10:56:03;;;;;;;13.43;10.98;;;;;;;32.96;47.67;65432.25;5065237;27;20256;-78
2023/07/15 10:58:32;;;;;;;16.27;10.80;;;;;;;32.66;50.30;65393.25;5063843;27;20223;-77
2023/07/15 11:01:02;;;;;;;12.27;9.73;;;;;;;33.03;48.86;65431.72;5065065;28;20289;-79
2023/07/15 11:03:30;;;;;;;14.00;9.88;;;;;;;33.44;46.87;65478.09;5063305;28;20197;-78
2023/07/15 11:05:58;;;;;;;15.07;10.90;;;;;;;33.09;50.45;65438.00;5052406;27;20255;-78
2023/07/15 11:08:25;;;;;;;15.32;11.50;;;;;;;32.82;49.68;65406.91;5063168;28;20219;-79
2023/07/15 11:10:59;;;;;;;13.27;10.95;;;;;;;33.04;51.86;65435.94;5065074;27;20276;-78
2023/07/15 11:13:26;;;;;;;10.25;9.32;;;;;;;33.10;49.96;65436.44;5064355;27;20208;-78
2023/07/15 11:15:53;;;;;;;12.77;9.98;;;;;;;33.45;47.51;65476.50;5065315;28;20221;-78
2023/07/15 11:18:23;;;;;;;11.00;9.90;;;;;;;33.34;47.17;65467.53;5063370;28;20188;-78
2023/07/15 11:20:53;;;;;;;17.30;10.77;;;;;;;33.69;50.90;65501.78;5062231;28;20213;-78
2023/07/15 11:23:20;;;;;;;14.05;10.23;;;;;;;33.78;46.83;65513.38;5062713;28;20193;-78